Time;durP1;ratioP1;P1;durP2;ratioP2;P2;SDS_P1;SDS_P2;PMS_P1;PMS_P2;Temp;Humidity;BMP_temperature;BMP_pressure;BME280_temperature;BME280_humidity;BME280_pressure;Samples;Min_cycle;Max_cycle;Signal;HPM_P1;HPM_P2
2023/03/01 00:00:21;;;;;;;20.10;11.60;;;;;;;;;;4978014;28;20061;-69
2023/03/01 00:02:50;;;;;;;23.80;10.98;;;;;;;;;;4982263;28;20046;-69
2023/03/01 00:05:17;;;;;;;15.98;10.18;;;;;;;;;;4982045;28;20053;-69
2023/03/01 00:07:44;;;;;;;19.98;11.10;;;;;;;;;;4979747;28;20061;-69
2023/03/01 00:10:12;;;;;;;18.77;10.73;;;;;;;;;;4984973;28;20485;-69
2023/03/01 00:12:40;;;;;;;20.17;11.95;;;;;;;;;;4980470;28;20042;-69
2023/03/01 00:15:07;;;;;;;17.40;10.30;;;;;;;;;;4977028;28;20138;-69
2023/03/01 00:17:35;;;;;;;21.13;11.70;;;;;;;;;;4998793;28;20050;-69
2023/03/01 00:20:05;;;;;;;20.23;10.18;;;;;;;;;;4980323;28;20138;-69
2023/03/01 00:22:34;;;;;;;24.83;10.75;;;;;;;;;;4981655;28;20401;-70
2023/03/01 00:25:01;;;;;;;17.77;9.63;;;;;;;;;;4983201;28;20058;-69
2023/03/01 00:27:28;;;;;;;15.95;9.50;;;;;;;;;;4999857;28;20062;-69
2023/03/01 00:29:55;;;;;;;22.05;11.27;;;;;;;;;;4996949;28;20046;-69
2023/03/01 00:32:23;;;;;;;21.73;10.70;;;;;;;;;;4979918;28;20047;-69
2023/03/01 00:34:54;;;;;;;25.50;11.95;;;;;;;;;;4974282;28;20066;-69
2023/03/01 00:37:23;;;;;;;40.53;16.60;;;;;;;;;;4991095;28;20133;-69
2023/03/01 00:39:50;;;;;;;40.72;17.65;;;;;;;;;;4997497;28;20072;-69
2023/03/01 00:42:18;;;;;;;36.08;16.65;;;;;;;;;;4976824;28;20046;-69
2023/03/01 00:44:45;;;;;;;31.92;14.35;;;;;;;;;;4993795;28;20057;-69
2023/03/01 00:47:13;;;;;;;22.75;11.55;;;;;;;;;;4978430;28;20042;-69
2023/03/01 00:49:40;;;;;;;26.10;10.52;;;;;;;;;;4978154;28;20108;-69
2023/03/01 00:52:08;;;;;;;16.75;9.00;;;;;;;;;;4977821;28;20939;-69
2023/03/01 00:54:36;;;;;;;21.95;10.52;;;;;;;;;;4999242;28;20055;-69
2023/03/01 00:57:04;;;;;;;17.75;10.15;;;;;;;;;;4993579;28;20046;-69
2023/03/01 00:59:31;;;;;;;17.60;9.68;;;;;;;;;;4980987;28;20065;-69
2023/03/01 01:01:59;;;;;;;17.52;9.45;;;;;;;;;;4975094;28;20053;-69
2023/03/01 01:04:26;;;;;;;20.67;9.75;;;;;;;;;;4973091;28;20057;-69
2023/03/01 01:06:53;;;;;;;13.57;8.57;;;;;;;;;;4974212;28;20057;-69
2023/03/01 01:09:20;;;;;;;15.10;8.80;;;;;;;;;;5000160;28;20509;-70
2023/03/01 01:11:50;;;;;;;16.15;8.85;;;;;;;;;;4995517;28;20059;-69
2023/03/01 01:14:17;;;;;;;15.18;8.80;;;;;;;;;;4987844;28;20344;-69
2023/03/01 01:16:45;;;;;;;17.83;9.60;;;;;;;;;;4980396;28;20090;-69
2023/03/01 01:19:13;;;;;;;16.05;8.98;;;;;;;;;;5002631;28;20377;-69
2023/03/01 01:21:42;;;;;;;13.27;8.30;;;;;;;;;;4979710;28;20166;-69
2023/03/01 01:24:10;;;;;;;18.38;9.02;;;;;;;;;;4978442;28;20050;-69
2023/03/01 01:26:37;;;;;;;17.20;9.80;;;;;;;;;;4997161;28;20092;-69
2023/03/01 01:29:08;;;;;;;16.38;9.60;;;;;;;;;;4977144;28;20537;-69
2023/03/01 01:31:36;;;;;;;27.88;11.32;;;;;;;;;;4977960;28;20054;-69
2023/03/01 01:34:04;;;;;;;20.05;10.40;;;;;;;;;;4988371;28;20497;-69
2023/03/01 01:36:32;;;;;;;20.83;11.35;;;;;;;;;;4990408;28;20086;-70
2023/03/01 01:38:59;;;;;;;22.17;10.85;;;;;;;;;;4983226;28;20131;-69
2023/03/01 01:41:27;;;;;;;20.85;10.48;;;;;;;;;;4969970;28;20513;-69
2023/03/01 01:44:09;;;;;;;19.98;9.85;;;;;;;;;;4975611;28;20042;-69
2023/03/01 01:46:39;;;;;;;38.80;11.05;;;;;;;;;;4990191;28;20058;-68
2023/03/01 01:49:09;;;;;;;23.58;10.60;;;;;;;;;;4975473;28;21280;-69
2023/03/01 01:51:39;;;;;;;33.65;12.80;;;;;;;;;;4974341;28;20056;-69
2023/03/01 01:54:09;;;;;;;143.80;15.88;;;;;;;;;;4982231;28;20657;-69
2023/03/01 01:56:38;;;;;;;74.53;14.43;;;;;;;;;;4977047;28;20065;-69
2023/03/01 01:59:05;;;;;;;44.78;14.25;;;;;;;;;;4974178;28;20382;-69
2023/03/01 02:01:33;;;;;;;38.35;14.77;;;;;;;;;;4999046;28;20382;-69
2023/03/01 02:04:01;;;;;;;95.38;15.40;;;;;;;;;;4977546;28;20514;-69
2023/03/01 02:06:30;;;;;;;186.95;16.83;;;;;;;;;;4974953;28;20055;-69
2023/03/01 02:08:59;;;;;;;375.05;17.70;;;;;;;;;;4980629;28;20075;-69
2023/03/01 02:11:26;;;;;;;306.00;17.80;;;;;;;;;;4977679;28;20054;-69
2023/03/01 02:13:54;;;;;;;222.73;14.95;;;;;;;;;;4969752;28;20050;-70
2023/03/01 02:16:22;;;;;;;79.45;12.95;;;;;;;;;;4964633;28;21302;-69
2023/03/01 02:18:49;;;;;;;105.15;12.40;;;;;;;;;;4970581;28;20546;-69
2023/03/01 02:21:27;;;;;;;158.65;9.75;;;;;;;;;;4963730;28;20050;-69
2023/03/01 02:23:55;;;;;;;156.05;8.32;;;;;;;;;;4970700;28;20112;-69
2023/03/01 02:26:29;;;;;;;212.50;8.23;;;;;;;;;;4969744;28;20050;-69
2023/03/01 02:28:57;;;;;;;211.45;8.05;;;;;;;;;;4976501;28;20529;-69
2023/03/01 02:31:43;;;;;;;148.00;7.85;;;;;;;;;;4985953;28;20047;-70
2023/03/01 02:34:12;;;;;;;214.32;9.07;;;;;;;;;;4983457;28;20050;-69
2023/03/01 02:36:40;;;;;;;234.98;10.07;;;;;;;;;;4985539;28;20050;-69
2023/03/01 02:39:14;;;;;;;273.45;11.60;;;;;;;;;;4992491;28;20043;-68
2023/03/01 02:41:42;;;;;;;349.77;11.57;;;;;;;;;;4992996;28;20097;-69
2023/03/01 02:44:11;;;;;;;424.45;11.75;;;;;;;;;;4976586;28;20499;-69
2023/03/01 02:46:43;;;;;;;254.48;11.32;;;;;;;;;;4972253;28;20157;-68
2023/03/01 02:49:21;;;;;;;433.77;14.75;;;;;;;;;;4978763;28;20049;-69
2023/03/01 02:51:54;;;;;;;478.88;13.52;;;;;;;;;;4978059;28;20058;-69
2023/03/01 02:54:24;;;;;;;374.23;12.57;;;;;;;;;;4999499;28;20046;-69
2023/03/01 02:56:51;;;;;;;253.55;10.65;;;;;;;;;;4993451;28;20042;-69
2023/03/01 02:59:22;;;;;;;404.35;10.85;;;;;;;;;;4977023;28;20137;-69
2023/03/01 03:01:49;;;;;;;288.27;10.32;;;;;;;;;;4973211;28;20410;-69
2023/03/01 03:04:18;;;;;;;267.75;10.07;;;;;;;;;;4990543;28;20049;-69
2023/03/01 03:06:45;;;;;;;317.52;9.02;;;;;;;;;;4987263;28;20068;-69
2023/03/01 03:09:12;;;;;;;343.65;10.50;;;;;;;;;;4976307;28;20494;-69
2023/03/01 03:11:40;;;;;;;268.77;8.85;;;;;;;;;;4979037;28;20072;-68
2023/03/01 03:14:12;;;;;;;315.00;8.43;;;;;;;;;;4977316;28;20047;-69
2023/03/01 03:16:42;;;;;;;289.33;8.65;;;;;;;;;;4970805;28;20054;-68
2023/03/01 03:19:10;;;;;;;256.48;8.50;;;;;;;;;;4968194;28;20050;-69
2023/03/01 03:21:37;;;;;;;284.40;7.82;;;;;;;;;;4984177;28;20060;-69
2023/03/01 03:24:05;;;;;;;137.20;6.68;;;;;;;;;;4968560;28;20049;-69
2023/03/01 03:26:33;;;;;;;132.93;8.73;;;;;;;;;;4967410;28;20059;-69
2023/03/01 03:29:00;;;;;;;116.63;6.38;;;;;;;;;;4985659;28;20058;-69
2023/03/01 03:31:28;;;;;;;189.98;10.00;;;;;;;;;;4982665;28;20128;-69
2023/03/01 03:33:58;;;;;;;296.38;10.00;;;;;;;;;;4989228;28;20427;-69
2023/03/01 03:36:26;;;;;;;298.88;9.85;;;;;;;;;;4982494;28;20085;-69
2023/03/01 03:38:53;;;;;;;313.38;12.45;;;;;;;;;;4972613;28;20054;-69
2023/03/01 03:41:21;;;;;;;276.73;11.77;;;;;;;;;;4986673;28;20072;-69
2023/03/01 03:43:48;;;;;;;190.23;11.68;;;;;;;;;;4979037;28;20054;-69
2023/03/01 03:46:16;;;;;;;388.17;12.35;;;;;;;;;;4989113;28;20512;-69
2023/03/01 03:48:45;;;;;;;420.67;11.40;;;;;;;;;;4977703;28;20662;-69
2023/03/01 03:51:14;;;;;;;403.02;9.50;;;;;;;;;;4978534;28;20073;-69
2023/03/01 03:53:42;;;;;;;381.25;11.77;;;;;;;;;;4994859;28;20050;-69
2023/03/01 03:56:09;;;;;;;196.40;7.85;;;;;;;;;;4994954;28;20052;-69
2023/03/01 03:58:37;;;;;;;292.83;7.70;;;;;;;;;;4991215;28;20092;-69
2023/03/01 04:01:04;;;;;;;242.95;10.45;;;;;;;;;;4974155;28;20054;-69
2023/03/01 04:03:33;;;;;;;229.75;9.10;;;;;;;;;;4978286;28;20046;-69
2023/03/01 04:06:01;;;;;;;291.92;9.43;;;;;;;;;;4971353;28;20050;-68
2023/03/01 04:08:30;;;;;;;382.70;10.90;;;;;;;;;;4972831;28;20064;-69
2023/03/01 04:11:25;;;;;;;324.08;9.90;;;;;;;;;;4969638;28;20054;-70
2023/03/01 04:13:48;;;;;;;224.13;8.13;;;;;;;;;;4991277;28;20053;-69
2023/03/01 04:16:16;;;;;;;105.65;8.10;;;;;;;;;;4973999;28;20054;-69
2023/03/01 04:18:43;;;;;;;56.90;7.93;;;;;;;;;;4999947;28;20137;-69
2023/03/01 04:21:11;;;;;;;112.45;8.30;;;;;;;;;;4975034;28;20101;-69
2023/03/01 04:23:43;;;;;;;220.20;7.82;;;;;;;;;;4968848;28;20117;-69
2023/03/01 04:26:10;;;;;;;193.88;6.80;;;;;;;;;;4971998;28;20057;-69
2023/03/01 04:28:39;;;;;;;132.20;8.38;;;;;;;;;;4993497;28;20105;-69
2023/03/01 04:31:13;;;;;;;115.57;7.10;;;;;;;;;;4994269;28;20050;-69
2023/03/01 04:33:41;;;;;;;121.40;8.40;;;;;;;;;;4996368;28;20109;-69
2023/03/01 04:36:09;;;;;;;50.58;6.53;;;;;;;;;;4994456;28;20090;-68
2023/03/01 04:38:37;;;;;;;57.33;5.78;;;;;;;;;;4982473;28;20096;-69
2023/03/01 04:41:07;;;;;;;19.90;6.15;;;;;;;;;;4980779;28;20442;-68
2023/03/01 04:43:34;;;;;;;8.18;5.53;;;;;;;;;;4973362;28;20054;-69
2023/03/01 04:46:03;;;;;;;7.63;4.90;;;;;;;;;;4983253;28;20711;-69
2023/03/01 04:48:31;;;;;;;7.45;4.80;;;;;;;;;;4988197;28;20176;-68
2023/03/01 04:50:58;;;;;;;9.30;5.68;;;;;;;;;;4974608;28;20051;-69
2023/03/01 04:53:25;;;;;;;36.75;6.72;;;;;;;;;;4985223;28;20045;-69
2023/03/01 04:55:52;;;;;;;10.55;6.47;;;;;;;;;;4989895;28;20486;-69
2023/03/01 04:58:21;;;;;;;18.35;6.55;;;;;;;;;;4981605;28;20061;-69
2023/03/01 05:00:48;;;;;;;11.43;6.30;;;;;;;;;;4994400;28;20054;-69
2023/03/01 05:03:17;;;;;;;13.18;6.88;;;;;;;;;;4995495;28;20050;-69
2023/03/01 05:05:45;;;;;;;12.63;6.85;;;;;;;;;;4983034;28;20462;-69
2023/03/01 05:08:17;;;;;;;10.70;6.95;;;;;;;;;;4971635;28;20058;-69
2023/03/01 05:10:45;;;;;;;13.18;7.35;;;;;;;;;;4996843;28;20636;-69
2023/03/01 05:13:14;;;;;;;15.07;6.72;;;;;;;;;;4976781;28;20598;-69
2023/03/01 05:15:43;;;;;;;11.38;6.90;;;;;;;;;;4976537;28;20066;-69
2023/03/01 05:18:11;;;;;;;11.38;6.65;;;;;;;;;;4995064;28;20053;-69
2023/03/01 05:20:38;;;;;;;11.02;6.60;;;;;;;;;;4975078;28;20051;-69
2023/03/01 05:23:06;;;;;;;11.48;6.40;;;;;;;;;;4972297;28;20054;-69
2023/03/01 05:25:33;;;;;;;11.93;6.60;;;;;;;;;;4992092;28;20051;-69
2023/03/01 05:28:03;;;;;;;12.50;7.53;;;;;;;;;;4984594;28;20054;-68
2023/03/01 05:30:31;;;;;;;16.13;8.73;;;;;;;;;;4986122;28;20057;-69
2023/03/01 05:33:00;;;;;;;14.57;8.10;;;;;;;;;;4993432;28;20050;-69
2023/03/01 05:35:27;;;;;;;20.10;10.38;;;;;;;;;;4978693;28;20069;-69
2023/03/01 05:37:54;;;;;;;14.50;8.35;;;;;;;;;;4975353;28;20049;-69
2023/03/01 05:40:23;;;;;;;12.70;7.40;;;;;;;;;;4977911;28;20056;-68
2023/03/01 05:42:52;;;;;;;10.77;7.13;;;;;;;;;;4977884;28;20061;-69
2023/03/01 05:45:19;;;;;;;13.68;8.05;;;;;;;;;;4976218;28;20496;-69
2023/03/01 05:47:47;;;;;;;10.60;6.88;;;;;;;;;;4995280;28;20128;-69
2023/03/01 05:50:18;;;;;;;10.50;6.45;;;;;;;;;;4986791;28;20060;-69
2023/03/01 05:52:46;;;;;;;10.27;6.47;;;;;;;;;;4992072;28;20082;-69
2023/03/01 05:55:13;;;;;;;11.35;6.88;;;;;;;;;;4996629;28;20118;-69
2023/03/01 05:57:41;;;;;;;14.38;8.07;;;;;;;;;;4972902;28;20061;-69
2023/03/01 06:00:08;;;;;;;13.18;7.70;;;;;;;;;;5002598;28;20046;-69
2023/03/01 06:02:36;;;;;;;15.48;8.15;;;;;;;;;;4973619;28;20068;-69
2023/03/01 06:05:03;;;;;;;14.93;8.63;;;;;;;;;;4983684;28;20482;-69
2023/03/01 06:07:32;;;;;;;20.42;9.77;;;;;;;;;;4979617;28;20486;-69
2023/03/01 06:09:59;;;;;;;29.70;11.68;;;;;;;;;;4996547;28;20054;-69
2023/03/01 06:12:26;;;;;;;27.05;9.90;;;;;;;;;;4974403;28;20186;-69
2023/03/01 06:14:53;;;;;;;43.42;12.88;;;;;;;;;;4990439;28;20050;-69
2023/03/01 06:17:21;;;;;;;38.40;12.70;;;;;;;;;;4964782;28;20058;-69
2023/03/01 06:19:48;;;;;;;72.47;14.38;;;;;;;;;;4972901;28;20073;-70
2023/03/01 06:22:15;;;;;;;115.72;17.80;;;;;;;;;;4971683;28;20084;-69
2023/03/01 06:24:44;;;;;;;125.25;13.38;;;;;;;;;;4971552;28;20061;-69
2023/03/01 06:27:11;;;;;;;222.68;31.27;;;;;;;;;;4972178;28;20058;-68
2023/03/01 06:29:38;;;;;;;101.97;22.45;;;;;;;;;;4971170;28;20045;-69
2023/03/01 06:32:06;;;;;;;104.43;16.42;;;;;;;;;;4987740;28;20054;-69
2023/03/01 06:34:33;;;;;;;134.68;17.15;;;;;;;;;;4989094;28;20478;-69
2023/03/01 06:37:02;;;;;;;150.27;16.90;;;;;;;;;;4990874;28;20057;-69
2023/03/01 06:39:29;;;;;;;174.18;15.70;;;;;;;;;;4991329;28;20057;-69
2023/03/01 06:41:58;;;;;;;127.82;14.45;;;;;;;;;;4995351;28;20510;-69
2023/03/01 06:44:26;;;;;;;125.10;15.38;;;;;;;;;;4972161;28;20653;-69
2023/03/01 06:46:53;;;;;;;78.95;14.85;;;;;;;;;;4981637;28;20130;-68
2023/03/01 06:49:20;;;;;;;60.15;13.30;;;;;;;;;;4977931;28;20054;-69
2023/03/01 06:51:48;;;;;;;74.45;12.63;;;;;;;;;;4995293;28;20102;-69
2023/03/01 06:54:15;;;;;;;127.90;12.20;;;;;;;;;;4979227;28;20042;-69
2023/03/01 06:56:42;;;;;;;115.03;11.55;;;;;;;;;;4999368;28;20056;-69
2023/03/01 06:59:11;;;;;;;51.38;9.10;;;;;;;;;;4994048;28;20497;-69
2023/03/01 07:01:38;;;;;;;19.52;8.90;;;;;;;;;;4994989;28;20056;-69
2023/03/01 07:04:06;;;;;;;100.20;11.30;;;;;;;;;;4993411;28;20057;-69
2023/03/01 07:06:33;;;;;;;61.33;10.90;;;;;;;;;;4990363;28;20053;-68
2023/03/01 07:09:00;;;;;;;119.00;13.77;;;;;;;;;;4968715;28;20053;-68
2023/03/01 07:11:27;;;;;;;58.33;12.02;;;;;;;;;;4979739;28;20050;-68
2023/03/01 07:13:55;;;;;;;73.97;12.90;;;;;;;;;;4987393;28;20056;-70
2023/03/01 07:16:24;;;;;;;148.55;13.80;;;;;;;;;;4979519;28;20149;-70
2023/03/01 07:18:51;;;;;;;110.32;11.48;;;;;;;;;;4976568;28;20061;-69
2023/03/01 07:21:18;;;;;;;72.45;11.52;;;;;;;;;;4971912;28;20062;-68
2023/03/01 07:23:48;;;;;;;90.50;11.38;;;;;;;;;;4964949;28;20049;-69
2023/03/01 07:26:16;;;;;;;54.97;9.45;;;;;;;;;;4980635;28;20089;-69
2023/03/01 07:28:43;;;;;;;59.83;9.43;;;;;;;;;;4972639;28;20058;-69
2023/03/01 07:31:10;;;;;;;68.18;9.60;;;;;;;;;;4990569;28;20061;-69
2023/03/01 07:33:39;;;;;;;67.28;9.60;;;;;;;;;;4969305;28;20065;-69
2023/03/01 07:36:07;;;;;;;96.25;11.60;;;;;;;;;;4969129;28;20069;-69
2023/03/01 07:38:34;;;;;;;46.45;9.63;;;;;;;;;;4976977;28;20046;-69
2023/03/01 07:41:02;;;;;;;12.68;8.35;;;;;;;;;;4994701;28;20640;-70
2023/03/01 07:43:29;;;;;;;14.98;9.00;;;;;;;;;;4985302;28;20077;-69
2023/03/01 07:45:59;;;;;;;12.32;7.90;;;;;;;;;;4984148;28;20079;-68
2023/03/01 07:48:26;;;;;;;11.57;7.35;;;;;;;;;;4988961;28;20502;-69
2023/03/01 07:50:55;;;;;;;13.05;8.02;;;;;;;;;;4970333;28;20041;-69
2023/03/01 07:53:22;;;;;;;13.45;7.63;;;;;;;;;;4968775;28;20412;-69
2023/03/01 07:55:49;;;;;;;11.73;7.70;;;;;;;;;;4988867;28;20054;-69
2023/03/01 07:58:17;;;;;;;14.63;8.38;;;;;;;;;;4981400;28;20411;-68
2023/03/01 08:00:44;;;;;;;14.80;8.13;;;;;;;;;;4973965;28;20133;-69
2023/03/01 08:03:11;;;;;;;13.60;7.00;;;;;;;;;;4974448;28;20089;-69
2023/03/01 08:05:38;;;;;;;9.52;6.72;;;;;;;;;;4970952;28;20056;-69
2023/03/01 08:08:07;;;;;;;9.50;6.85;;;;;;;;;;4982851;28;20084;-69
2023/03/01 08:10:34;;;;;;;9.27;6.55;;;;;;;;;;4972628;28;20505;-69
2023/03/01 08:13:02;;;;;;;9.15;6.47;;;;;;;;;;4977565;28;20061;-69
2023/03/01 08:15:29;;;;;;;12.20;7.78;;;;;;;;;;4977668;28;20050;-68
2023/03/01 08:17:56;;;;;;;8.65;6.03;;;;;;;;;;4968865;28;20058;-69
2023/03/01 08:20:24;;;;;;;9.10;6.75;;;;;;;;;;4987709;28;20056;-69
2023/03/01 08:22:51;;;;;;;11.55;7.65;;;;;;;;;;4968001;28;20054;-70
2023/03/01 08:25:19;;;;;;;8.35;6.53;;;;;;;;;;4983743;28;20056;-70
2023/03/01 08:27:47;;;;;;;8.98;6.40;;;;;;;;;;4990055;28;20531;-70
2023/03/01 08:30:14;;;;;;;9.93;6.28;;;;;;;;;;4984823;28;20038;-69
2023/03/01 08:32:42;;;;;;;9.65;6.65;;;;;;;;;;4976239;28;20053;-69
2023/03/01 08:35:09;;;;;;;6.65;5.30;;;;;;;;;;4963814;28;20074;-70
2023/03/01 08:37:37;;;;;;;9.65;6.55;;;;;;;;;;4970493;28;20077;-69
2023/03/01 08:40:06;;;;;;;6.32;5.10;;;;;;;;;;4976375;28;20129;-70
2023/03/01 08:42:35;;;;;;;6.90;5.18;;;;;;;;;;4982027;28;20054;-70
2023/03/01 08:45:03;;;;;;;6.90;4.95;;;;;;;;;;4974012;28;20485;-70
2023/03/01 08:47:30;;;;;;;9.50;6.40;;;;;;;;;;4998337;28;20064;-70
2023/03/01 08:49:57;;;;;;;9.80;7.55;;;;;;;;;;4995295;28;20576;-69
2023/03/01 08:52:25;;;;;;;14.80;8.20;;;;;;;;;;4967058;28;20054;-69
2023/03/01 08:54:53;;;;;;;18.17;11.18;;;;;;;;;;4965913;28;20082;-70
2023/03/01 08:57:20;;;;;;;16.25;10.73;;;;;;;;;;4962660;28;20110;-70
2023/03/01 08:59:49;;;;;;;16.13;10.55;;;;;;;;;;4974547;28;20057;-70
2023/03/01 09:02:17;;;;;;;18.17;11.75;;;;;;;;;;4990597;28;20069;-70
2023/03/01 09:04:44;;;;;;;21.38;12.10;;;;;;;;;;4967193;28;20058;-70
2023/03/01 09:07:11;;;;;;;23.17;15.05;;;;;;;;;;4974497;28;20042;-69
2023/03/01 09:09:39;;;;;;;28.02;16.58;;;;;;;;;;4976372;28;20085;-70
2023/03/01 09:12:06;;;;;;;28.48;17.30;;;;;;;;;;4997998;28;20137;-71
2023/03/01 09:14:37;;;;;;;23.67;14.32;;;;;;;;;;4984014;28;20511;-70
2023/03/01 09:17:05;;;;;;;23.42;15.18;;;;;;;;;;4991171;28;20042;-69
2023/03/01 09:19:32;;;;;;;27.42;15.98;;;;;;;;;;4990673;28;20052;-69
2023/03/01 09:22:00;;;;;;;24.65;15.40;;;;;;;;;;4976405;28;20057;-69
2023/03/01 09:24:27;;;;;;;28.40;17.45;;;;;;;;;;4991869;28;20046;-69
2023/03/01 09:26:56;;;;;;;22.27;14.80;;;;;;;;;;4985727;28;20045;-70
2023/03/01 09:29:24;;;;;;;22.42;14.23;;;;;;;;;;4990796;28;20050;-69
2023/03/01 09:31:54;;;;;;;23.13;14.73;;;;;;;;;;4988941;28;20137;-70
2023/03/01 09:34:23;;;;;;;23.75;13.82;;;;;;;;;;4996893;28;20054;-70
2023/03/01 09:36:51;;;;;;;22.33;13.90;;;;;;;;;;4978868;28;20452;-70
2023/03/01 09:39:20;;;;;;;21.35;13.48;;;;;;;;;;4998700;28;20220;-70
2023/03/01 09:41:49;;;;;;;24.60;12.75;;;;;;;;;;4979283;28;20501;-70
2023/03/01 09:44:29;;;;;;;25.17;13.35;;;;;;;;;;4973514;28;20394;-70
2023/03/01 09:46:57;;;;;;;21.45;13.63;;;;;;;;;;4988684;28;20743;-70
2023/03/01 09:49:28;;;;;;;22.08;13.45;;;;;;;;;;4986825;28;20395;-70
2023/03/01 09:51:57;;;;;;;22.33;13.48;;;;;;;;;;4973796;28;20175;-69
2023/03/01 09:54:24;;;;;;;19.02;12.80;;;;;;;;;;4985190;28;20133;-70
2023/03/01 09:56:58;;;;;;;20.95;12.57;;;;;;;;;;4973813;28;20046;-70
2023/03/01 09:59:25;;;;;;;;;;;;;;;;;;4989308;28;20386;-69
2023/03/01 10:01:56;;;;;;;22.42;13.02;;;;;;;;;;4976462;28;20332;-69
2023/03/01 10:04:40;;;;;;;20.63;12.45;;;;;;;;;;4967710;28;20049;-69
2023/03/01 10:07:14;;;;;;;20.85;12.25;;;;;;;;;;4963741;28;20073;-69
2023/03/01 10:09:43;;;;;;;20.75;12.95;;;;;;;;;;4964906;28;20081;-69
2023/03/01 10:12:11;;;;;;;20.42;13.30;;;;;;;;;;4995261;28;20133;-69
2023/03/01 10:14:40;;;;;;;19.88;12.52;;;;;;;;;;4992678;28;20085;-69
2023/03/01 10:17:12;;;;;;;20.55;12.80;;;;;;;;;;4991396;28;20046;-70
2023/03/01 10:19:42;;;;;;;17.40;12.10;;;;;;;;;;4973924;28;20069;-70
2023/03/01 10:22:14;;;;;;;19.80;13.70;;;;;;;;;;4988070;28;20061;-69
2023/03/01 10:24:42;;;;;;;19.00;11.95;;;;;;;;;;4988203;28;20048;-69
2023/03/01 10:27:11;;;;;;;21.15;12.95;;;;;;;;;;4980913;28;20069;-70
2023/03/01 10:29:41;;;;;;;18.73;12.45;;;;;;;;;;4981616;28;20049;-69
2023/03/01 10:32:08;;;;;;;18.48;11.95;;;;;;;;;;4965295;28;20055;-69
2023/03/01 10:34:37;;;;;;;17.52;11.15;;;;;;;;;;4967457;28;20501;-70
2023/03/01 10:37:12;;;;;;;15.50;10.82;;;;;;;;;;4979668;28;20102;-70
2023/03/01 10:39:55;;;;;;;15.68;10.43;;;;;;;;;;4983405;28;20041;-70
2023/03/01 10:42:27;;;;;;;16.45;10.57;;;;;;;;;;4970619;28;20133;-70
2023/03/01 10:44:54;;;;;;;14.18;9.82;;;;;;;;;;4965471;28;20046;-70
2023/03/01 10:47:23;;;;;;;16.42;10.20;;;;;;;;;;4979352;28;20051;-70
2023/03/01 10:50:09;;;;;;;15.93;9.43;;;;;;;;;;4978455;28;20094;-70
2023/03/01 10:52:38;;;;;;;14.15;8.57;;;;;;;;;;4965637;28;20058;-70
2023/03/01 10:55:21;;;;;;;14.65;9.35;;;;;;;;;;4965299;28;20085;-70
2023/03/01 10:57:48;;;;;;;14.32;8.43;;;;;;;;;;4975920;28;20050;-70
2023/03/01 11:00:21;;;;;;;12.25;8.15;;;;;;;;;;4972367;28;20061;-70
2023/03/01 11:02:49;;;;;;;10.77;8.07;;;;;;;;;;4973865;28;20051;-69
2023/03/01 11:05:23;;;;;;;9.55;7.82;;;;;;;;;;4986011;28;20104;-69
2023/03/01 11:07:53;;;;;;;14.20;7.85;;;;;;;;;;4987797;28;20059;-69
2023/03/01 11:10:25;;;;;;;11.05;7.32;;;;;;;;;;4994081;28;20046;-69
2023/03/01 11:12:53;;;;;;;11.52;8.02;;;;;;;;;;4974328;28;20054;-69
2023/03/01 11:15:25;;;;;;;12.57;6.47;;;;;;;;;;4989629;28;20129;-68
2023/03/01 11:17:53;;;;;;;11.65;6.68;;;;;;;;;;4979722;28;20060;-68
2023/03/01 11:20:25;;;;;;;8.98;6.70;;;;;;;;;;4991068;28;20046;-69
2023/03/01 11:22:55;;;;;;;9.70;5.82;;;;;;;;;;4989291;28;20050;-69
2023/03/01 11:25:25;;;;;;;9.38;5.97;;;;;;;;;;4979721;28;20494;-69
2023/03/01 11:27:53;;;;;;;9.57;6.15;;;;;;;;;;4962403;28;20053;-69
2023/03/01 11:30:23;;;;;;;9.15;6.20;;;;;;;;;;4975380;28;20065;-68
2023/03/01 11:32:54;;;;;;;8.38;6.50;;;;;;;;;;4997554;28;20061;-69
2023/03/01 11:35:22;;;;;;;8.65;6.45;;;;;;;;;;4983866;28;20429;-69
2023/03/01 11:37:57;;;;;;;9.43;6.13;;;;;;;;;;4976893;28;20050;-69
2023/03/01 11:40:27;;;;;;;10.68;6.80;;;;;;;;;;4992089;28;20053;-69
2023/03/01 11:43:03;;;;;;;14.10;7.43;;;;;;;;;;4978166;28;20109;-69
2023/03/01 11:45:33;;;;;;;13.07;7.95;;;;;;;;;;4983603;28;20514;-69
2023/03/01 11:48:06;;;;;;;10.93;8.13;;;;;;;;;;4969523;28;20055;-69
2023/03/01 11:50:37;;;;;;;9.55;6.75;;;;;;;;;;4984835;28;20070;-69
2023/03/01 11:53:19;;;;;;;15.07;7.13;;;;;;;;;;4964883;28;20108;-68
2023/03/01 11:55:54;;;;;;;9.75;7.50;;;;;;;;;;4977284;28;20062;-69
2023/03/01 11:58:37;;;;;;;9.70;6.60;;;;;;;;;;4996533;28;20050;-69
2023/03/01 12:01:12;;;;;;;10.57;7.53;;;;;;;;;;4991186;28;20137;-68
2023/03/01 12:03:52;;;;;;;11.98;8.15;;;;;;;;;;4977152;28;20405;-69
2023/03/01 12:06:30;;;;;;;12.10;7.47;;;;;;;;;;4983374;28;20043;-69
2023/03/01 12:09:06;;;;;;;12.93;7.75;;;;;;;;;;4969516;28;20047;-69
2023/03/01 12:11:41;;;;;;;12.52;7.95;;;;;;;;;;4983937;28;20043;-69
2023/03/01 12:14:27;;;;;;;9.82;7.68;;;;;;;;;;4967502;28;20058;-69
2023/03/01 12:17:09;;;;;;;13.15;8.80;;;;;;;;;;4992190;28;20038;-70
2023/03/01 12:19:43;;;;;;;11.98;8.50;;;;;;;;;;4973478;28;20057;-69
2023/03/01 12:22:17;;;;;;;12.13;8.57;;;;;;;;;;4990392;28;20046;-69
2023/03/01 12:24:53;;;;;;;13.88;8.45;;;;;;;;;;4991009;28;20053;-69
2023/03/01 12:27:36;;;;;;;12.50;8.60;;;;;;;;;;4979665;28;20042;-69
2023/03/01 12:30:08;;;;;;;13.55;9.48;;;;;;;;;;4993033;28;20077;-69
2023/03/01 12:32:41;;;;;;;12.02;8.88;;;;;;;;;;4991921;28;20085;-70
2023/03/01 12:35:08;;;;;;;;;;;;;;;;;;4978935;28;20058;-70
2023/03/01 12:37:44;;;;;;;12.60;8.30;;;;;;;;;;4995512;28;19959;-69
2023/03/01 12:40:27;;;;;;;11.32;8.20;;;;;;;;;;4979411;28;20054;-70
2023/03/01 12:43:01;;;;;;;13.38;9.02;;;;;;;;;;4993003;28;20050;-69
2023/03/01 12:45:47;;;;;;;10.13;7.90;;;;;;;;;;4990722;28;20047;-70
2023/03/01 12:48:21;;;;;;;11.40;8.27;;;;;;;;;;4985827;28;20050;-70
2023/03/01 12:50:50;;;;;;;11.15;8.32;;;;;;;;;;4994966;28;20513;-70
2023/03/01 12:53:23;;;;;;;10.82;8.40;;;;;;;;;;4995363;28;20572;-70
2023/03/01 12:55:50;;;;;;;;;;;;;;;;;;5001953;28;20575;-70
2023/03/01 12:58:30;;;;;;;10.50;8.25;;;;;;;;;;4984604;28;20369;-76
2023/03/01 13:01:03;;;;;;;10.90;8.05;;;;;;;;;;4976647;28;20165;-76
2023/03/01 13:03:34;;;;;;;11.20;8.43;;;;;;;;;;4982498;28;20060;-76
2023/03/01 13:06:06;;;;;;;11.43;8.88;;;;;;;;;;4973567;28;20050;-76
2023/03/01 13:08:37;;;;;;;10.45;8.38;;;;;;;;;;4973591;28;20066;-76
2023/03/01 13:11:05;;;;;;;11.93;8.40;;;;;;;;;;4981288;28;20046;-76
2023/03/01 13:13:34;;;;;;;12.65;8.50;;;;;;;;;;4977819;28;20078;-75
2023/03/01 13:16:23;;;;;;;11.75;8.77;;;;;;;;;;4977862;28;20050;-75
2023/03/01 13:18:50;;;;;;;13.77;9.10;;;;;;;;;;4969411;28;20105;-75
2023/03/01 13:21:30;;;;;;;16.63;9.25;;;;;;;;;;4973004;28;20057;-76
2023/03/01 13:23:57;;;;;;;13.38;7.93;;;;;;;;;;4995882;28;20050;-75
2023/03/01 13:26:25;;;;;;;10.38;8.68;;;;;;;;;;4971663;28;20050;-75
2023/03/01 13:28:55;;;;;;;11.88;9.10;;;;;;;;;;4969426;28;20137;-76
2023/03/01 13:31:41;;;;;;;11.48;8.52;;;;;;;;;;4972723;28;20108;-75
2023/03/01 13:34:29;;;;;;;12.27;8.60;;;;;;;;;;4971658;28;20410;-76
2023/03/01 13:37:09;;;;;;;13.30;8.82;;;;;;;;;;4971953;28;20407;-76
2023/03/01 13:39:40;;;;;;;12.88;8.70;;;;;;;;;;4973443;28;20046;-76
2023/03/01 13:42:22;;;;;;;10.65;8.50;;;;;;;;;;4969303;28;20410;-76
2023/03/01 13:44:51;;;;;;;13.10;8.82;;;;;;;;;;4970882;28;20043;-76
2023/03/01 13:47:19;;;;;;;12.63;8.38;;;;;;;;;;4971325;28;20510;-76
2023/03/01 13:49:49;;;;;;;13.43;8.98;;;;;;;;;;4968669;28;20050;-76
2023/03/01 13:52:32;;;;;;;12.68;8.57;;;;;;;;;;4972117;28;20398;-76
2023/03/01 13:55:01;;;;;;;12.27;8.75;;;;;;;;;;4977421;28;20058;-76
2023/03/01 13:57:34;;;;;;;10.07;8.52;;;;;;;;;;4974947;28;20047;-75
2023/03/01 14:00:03;;;;;;;11.90;8.45;;;;;;;;;;4977393;28;20498;-76
2023/03/01 14:02:30;;;;;;;10.73;8.07;;;;;;;;;;4974091;28;20113;-76
2023/03/01 14:04:58;;;;;;;9.73;7.80;;;;;;;;;;4970829;28;20054;-76
2023/03/01 14:07:29;;;;;;;10.50;7.88;;;;;;;;;;4968199;28;20054;-76
2023/03/01 14:09:57;;;;;;;11.48;8.20;;;;;;;;;;4977014;28;20148;-76
2023/03/01 14:12:41;;;;;;;10.77;8.60;;;;;;;;;;4979464;28;20077;-76
2023/03/01 14:15:11;;;;;;;10.70;8.60;;;;;;;;;;4965955;28;20717;-76
2023/03/01 14:17:49;;;;;;;10.45;8.20;;;;;;;;;;4969754;28;20058;-76
2023/03/01 14:20:19;;;;;;;12.07;8.80;;;;;;;;;;4969391;28;20065;-76
2023/03/01 14:22:47;;;;;;;9.85;8.13;;;;;;;;;;4969687;28;20046;-76
2023/03/01 14:25:30;;;;;;;10.75;8.35;;;;;;;;;;4968836;28;20051;-76
2023/03/01 14:28:00;;;;;;;12.43;7.63;;;;;;;;;;4969734;28;20046;-75
2023/03/01 14:30:32;;;;;;;10.98;7.75;;;;;;;;;;4968437;28;20058;-76
2023/03/01 14:33:00;;;;;;;8.15;7.10;;;;;;;;;;4967833;28;20085;-76
2023/03/01 14:35:28;;;;;;;9.98;7.82;;;;;;;;;;4970317;28;20055;-76
2023/03/01 14:37:55;;;;;;;12.43;8.27;;;;;;;;;;4972383;28;20050;-76